sensor_id;sensor_type;location;lat;lon;timestamp;P1;durP1;ratioP1;P2;durP2;ratioP2
15946;SDS011;8072;52.554;7.966;2022-10-17T00:01:11;8.73;;;5.80;;
15946;SDS011;8072;52.554;7.966;2022-10-17T00:03:38;8.83;;;6.60;;
15946;SDS011;8072;52.554;7.966;2022-10-17T00:06:06;7.07;;;6.20;;
15946;SDS011;8072;52.554;7.966;2022-10-17T00:08:34;9.73;;;6.20;;
15946;SDS011;8072;52.554;7.966;2022-10-17T00:11:02;6.73;;;6.13;;
15946;SDS011;8072;52.554;7.966;2022-10-17T00:13:31;7.87;;;6.23;;
15946;SDS011;8072;52.554;7.966;2022-10-17T00:15:57;9.00;;;7.10;;
15946;SDS011;8072;52.554;7.966;2022-10-17T00:18:23;11.00;;;6.97;;
15946;SDS011;8072;52.554;7.966;2022-10-17T00:20:49;7.77;;;7.00;;
15946;SDS011;8072;52.554;7.966;2022-10-17T00:23:16;8.10;;;7.30;;
15946;SDS011;8072;52.554;7.966;2022-10-17T00:25:43;7.53;;;6.30;;
15946;SDS011;8072;52.554;7.966;2022-10-17T00:28:11;9.73;;;6.97;;
15946;SDS011;8072;52.554;7.966;2022-10-17T00:30:37;10.10;;;7.53;;
15946;SDS011;8072;52.554;7.966;2022-10-17T00:33:04;8.90;;;7.40;;
15946;SDS011;8072;52.554;7.966;2022-10-17T00:35:30;9.73;;;7.40;;
15946;SDS011;8072;52.554;7.966;2022-10-17T00:37:56;10.20;;;7.37;;
15946;SDS011;8072;52.554;7.966;2022-10-17T00:40:24;8.73;;;7.03;;
15946;SDS011;8072;52.554;7.966;2022-10-17T00:42:50;7.50;;;6.67;;
15946;SDS011;8072;52.554;7.966;2022-10-17T00:45:35;9.23;;;7.30;;
15946;SDS011;8072;52.554;7.966;2022-10-17T00:48:02;8.67;;;7.77;;
15946;SDS011;8072;52.554;7.966;2022-10-17T00:50:32;9.77;;;7.27;;
15946;SDS011;8072;52.554;7.966;2022-10-17T00:53:00;8.97;;;7.67;;
15946;SDS011;8072;52.554;7.966;2022-10-17T00:55:41;7.70;;;6.90;;
15946;SDS011;8072;52.554;7.966;2022-10-17T00:58:13;8.50;;;7.40;;
15946;SDS011;8072;52.554;7.966;2022-10-17T01:04:04;11.27;;;8.00;;
15946;SDS011;8072;52.554;7.966;2022-10-17T01:06:30;13.20;;;8.20;;
15946;SDS011;8072;52.554;7.966;2022-10-17T01:08:55;10.87;;;8.00;;
15946;SDS011;8072;52.554;7.966;2022-10-17T01:17:02;7.93;;;7.13;;
15946;SDS011;8072;52.554;7.966;2022-10-17T01:19:50;10.17;;;7.83;;
15946;SDS011;8072;52.554;7.966;2022-10-17T01:22:58;9.93;;;8.33;;
15946;SDS011;8072;52.554;7.966;2022-10-17T01:31:44;9.43;;;7.80;;
15946;SDS011;8072;52.554;7.966;2022-10-17T01:34:17;8.97;;;6.90;;
15946;SDS011;8072;52.554;7.966;2022-10-17T01:36:56;9.73;;;7.63;;
15946;SDS011;8072;52.554;7.966;2022-10-17T01:42:16;7.30;;;6.37;;
15946;SDS011;8072;52.554;7.966;2022-10-17T01:44:56;8.00;;;6.90;;
15946;SDS011;8072;52.554;7.966;2022-10-17T01:47:35;8.13;;;6.37;;
15946;SDS011;8072;52.554;7.966;2022-10-17T01:50:07;8.07;;;7.00;;
15946;SDS011;8072;52.554;7.966;2022-10-17T01:52:42;10.07;;;7.63;;
15946;SDS011;8072;52.554;7.966;2022-10-17T01:55:31;8.50;;;7.33;;
15946;SDS011;8072;52.554;7.966;2022-10-17T01:58:08;11.20;;;7.40;;
15946;SDS011;8072;52.554;7.966;2022-10-17T02:00:36;8.37;;;7.30;;
15946;SDS011;8072;52.554;7.966;2022-10-17T02:03:05;7.23;;;6.53;;
15946;SDS011;8072;52.554;7.966;2022-10-17T02:05:37;8.40;;;7.40;;
15946;SDS011;8072;52.554;7.966;2022-10-17T02:08:05;11.00;;;7.40;;
15946;SDS011;8072;52.554;7.966;2022-10-17T02:13:05;7.53;;;6.83;;
15946;SDS011;8072;52.554;7.966;2022-10-17T02:18:19;8.30;;;6.93;;
15946;SDS011;8072;52.554;7.966;2022-10-17T02:21:26;7.70;;;6.90;;
15946;SDS011;8072;52.554;7.966;2022-10-17T02:26:39;7.00;;;6.30;;
15946;SDS011;8072;52.554;7.966;2022-10-17T02:29:14;8.13;;;6.73;;
15946;SDS011;8072;52.554;7.966;2022-10-17T02:34:28;9.73;;;7.10;;
15946;SDS011;8072;52.554;7.966;2022-10-17T02:37:02;8.10;;;7.13;;
15946;SDS011;8072;52.554;7.966;2022-10-17T02:39:30;7.87;;;6.70;;
15946;SDS011;8072;52.554;7.966;2022-10-17T02:42:00;7.67;;;6.80;;
15946;SDS011;8072;52.554;7.966;2022-10-17T02:44:30;7.70;;;5.90;;
15946;SDS011;8072;52.554;7.966;2022-10-17T02:47:03;7.60;;;6.70;;
15946;SDS011;8072;52.554;7.966;2022-10-17T02:49:38;6.37;;;5.60;;
15946;SDS011;8072;52.554;7.966;2022-10-17T02:52:09;10.00;;;6.80;;
15946;SDS011;8072;52.554;7.966;2022-10-17T02:57:17;9.63;;;7.30;;
15946;SDS011;8072;52.554;7.966;2022-10-17T02:59:49;10.97;;;7.23;;
15946;SDS011;8072;52.554;7.966;2022-10-17T03:02:16;8.60;;;7.00;;
15946;SDS011;8072;52.554;7.966;2022-10-17T03:04:43;12.73;;;8.20;;
15946;SDS011;8072;52.554;7.966;2022-10-17T03:07:09;12.40;;;8.23;;
15946;SDS011;8072;52.554;7.966;2022-10-17T03:09:35;8.27;;;7.40;;
15946;SDS011;8072;52.554;7.966;2022-10-17T03:12:01;9.87;;;7.33;;
15946;SDS011;8072;52.554;7.966;2022-10-17T03:14:27;12.57;;;8.27;;
15946;SDS011;8072;52.554;7.966;2022-10-17T03:16:52;11.43;;;8.07;;
15946;SDS011;8072;52.554;7.966;2022-10-17T03:19:18;12.60;;;7.80;;
15946;SDS011;8072;52.554;7.966;2022-10-17T03:21:44;12.77;;;7.83;;
15946;SDS011;8072;52.554;7.966;2022-10-17T03:24:11;10.70;;;8.57;;
15946;SDS011;8072;52.554;7.966;2022-10-17T03:26:37;8.50;;;7.23;;
15946;SDS011;8072;52.554;7.966;2022-10-17T03:29:02;9.80;;;8.27;;
15946;SDS011;8072;52.554;7.966;2022-10-17T03:31:28;10.83;;;8.03;;
15946;SDS011;8072;52.554;7.966;2022-10-17T03:33:54;8.53;;;7.63;;
15946;SDS011;8072;52.554;7.966;2022-10-17T03:36:20;8.40;;;7.03;;
15946;SDS011;8072;52.554;7.966;2022-10-17T03:38:46;9.17;;;8.10;;
15946;SDS011;8072;52.554;7.966;2022-10-17T03:41:12;9.13;;;7.73;;
15946;SDS011;8072;52.554;7.966;2022-10-17T03:43:38;9.43;;;7.87;;
15946;SDS011;8072;52.554;7.966;2022-10-17T03:46:04;10.60;;;7.50;;
15946;SDS011;8072;52.554;7.966;2022-10-17T03:48:30;12.20;;;9.07;;
15946;SDS011;8072;52.554;7.966;2022-10-17T03:51:00;9.00;;;7.97;;
15946;SDS011;8072;52.554;7.966;2022-10-17T03:53:27;11.70;;;8.17;;
15946;SDS011;8072;52.554;7.966;2022-10-17T03:55:53;14.77;;;8.20;;
15946;SDS011;8072;52.554;7.966;2022-10-17T03:58:20;10.43;;;8.47;;
15946;SDS011;8072;52.554;7.966;2022-10-17T04:00:45;9.40;;;7.80;;
15946;SDS011;8072;52.554;7.966;2022-10-17T04:03:12;10.37;;;7.87;;
15946;SDS011;8072;52.554;7.966;2022-10-17T04:05:40;10.27;;;8.43;;
15946;SDS011;8072;52.554;7.966;2022-10-17T04:08:05;10.63;;;8.13;;
15946;SDS011;8072;52.554;7.966;2022-10-17T04:10:31;11.33;;;8.40;;
15946;SDS011;8072;52.554;7.966;2022-10-17T04:12:57;9.53;;;8.53;;
15946;SDS011;8072;52.554;7.966;2022-10-17T04:15:23;10.57;;;8.13;;
15946;SDS011;8072;52.554;7.966;2022-10-17T04:17:48;11.27;;;9.10;;
15946;SDS011;8072;52.554;7.966;2022-10-17T04:20:14;11.33;;;8.03;;
15946;SDS011;8072;52.554;7.966;2022-10-17T04:22:40;10.57;;;8.23;;
15946;SDS011;8072;52.554;7.966;2022-10-17T04:25:05;10.70;;;8.60;;
15946;SDS011;8072;52.554;7.966;2022-10-17T04:27:31;10.70;;;8.57;;
15946;SDS011;8072;52.554;7.966;2022-10-17T04:29:57;11.07;;;7.77;;
15946;SDS011;8072;52.554;7.966;2022-10-17T04:32:23;10.10;;;8.77;;
15946;SDS011;8072;52.554;7.966;2022-10-17T04:34:50;11.67;;;8.80;;
15946;SDS011;8072;52.554;7.966;2022-10-17T04:37:15;13.70;;;9.03;;
15946;SDS011;8072;52.554;7.966;2022-10-17T04:39:41;12.80;;;8.40;;
15946;SDS011;8072;52.554;7.966;2022-10-17T04:42:07;11.37;;;8.77;;
15946;SDS011;8072;52.554;7.966;2022-10-17T04:44:32;11.47;;;8.43;;
15946;SDS011;8072;52.554;7.966;2022-10-17T04:46:59;11.40;;;8.80;;
15946;SDS011;8072;52.554;7.966;2022-10-17T04:49:25;11.97;;;9.57;;
15946;SDS011;8072;52.554;7.966;2022-10-17T04:51:51;11.80;;;8.97;;
15946;SDS011;8072;52.554;7.966;2022-10-17T04:54:17;11.43;;;9.00;;
15946;SDS011;8072;52.554;7.966;2022-10-17T04:56:42;10.30;;;8.73;;
15946;SDS011;8072;52.554;7.966;2022-10-17T04:59:08;10.53;;;8.53;;
15946;SDS011;8072;52.554;7.966;2022-10-17T05:01:34;12.73;;;9.87;;
15946;SDS011;8072;52.554;7.966;2022-10-17T05:03:59;10.47;;;8.47;;
15946;SDS011;8072;52.554;7.966;2022-10-17T05:06:25;13.70;;;9.27;;
15946;SDS011;8072;52.554;7.966;2022-10-17T05:08:56;11.83;;;9.10;;
15946;SDS011;8072;52.554;7.966;2022-10-17T05:11:23;11.17;;;9.27;;
15946;SDS011;8072;52.554;7.966;2022-10-17T05:13:55;11.60;;;8.93;;
15946;SDS011;8072;52.554;7.966;2022-10-17T05:16:22;10.73;;;8.80;;
15946;SDS011;8072;52.554;7.966;2022-10-17T05:18:53;11.40;;;8.90;;
15946;SDS011;8072;52.554;7.966;2022-10-17T05:21:21;12.37;;;9.53;;
15946;SDS011;8072;52.554;7.966;2022-10-17T05:23:48;11.20;;;9.23;;
15946;SDS011;8072;52.554;7.966;2022-10-17T05:26:15;13.17;;;9.87;;
15946;SDS011;8072;52.554;7.966;2022-10-17T05:28:41;14.27;;;9.40;;
15946;SDS011;8072;52.554;7.966;2022-10-17T05:31:07;10.30;;;8.53;;
15946;SDS011;8072;52.554;7.966;2022-10-17T05:33:35;12.93;;;9.50;;
15946;SDS011;8072;52.554;7.966;2022-10-17T05:36:02;10.77;;;8.57;;
15946;SDS011;8072;52.554;7.966;2022-10-17T05:38:28;12.73;;;9.23;;
15946;SDS011;8072;52.554;7.966;2022-10-17T05:41:01;11.27;;;8.93;;
15946;SDS011;8072;52.554;7.966;2022-10-17T05:43:28;13.83;;;9.03;;
15946;SDS011;8072;52.554;7.966;2022-10-17T05:45:55;11.83;;;9.13;;
15946;SDS011;8072;52.554;7.966;2022-10-17T05:48:21;14.87;;;8.30;;
15946;SDS011;8072;52.554;7.966;2022-10-17T05:50:48;11.00;;;8.77;;
15946;SDS011;8072;52.554;7.966;2022-10-17T05:53:16;12.00;;;8.60;;
15946;SDS011;8072;52.554;7.966;2022-10-17T05:55:42;11.47;;;8.27;;
15946;SDS011;8072;52.554;7.966;2022-10-17T05:58:08;10.70;;;8.37;;
15946;SDS011;8072;52.554;7.966;2022-10-17T06:00:33;11.87;;;9.03;;
15946;SDS011;8072;52.554;7.966;2022-10-17T06:02:59;11.77;;;8.67;;
15946;SDS011;8072;52.554;7.966;2022-10-17T06:05:25;13.97;;;8.30;;
15946;SDS011;8072;52.554;7.966;2022-10-17T06:07:51;12.40;;;8.30;;
15946;SDS011;8072;52.554;7.966;2022-10-17T06:10:17;11.90;;;8.43;;
15946;SDS011;8072;52.554;7.966;2022-10-17T06:12:43;11.60;;;8.47;;
15946;SDS011;8072;52.554;7.966;2022-10-17T06:15:10;10.67;;;8.97;;
15946;SDS011;8072;52.554;7.966;2022-10-17T06:17:36;10.60;;;8.30;;
15946;SDS011;8072;52.554;7.966;2022-10-17T06:20:02;14.33;;;8.03;;
15946;SDS011;8072;52.554;7.966;2022-10-17T06:22:29;15.37;;;8.93;;
15946;SDS011;8072;52.554;7.966;2022-10-17T06:24:54;8.63;;;7.40;;
15946;SDS011;8072;52.554;7.966;2022-10-17T06:27:20;12.73;;;8.20;;
15946;SDS011;8072;52.554;7.966;2022-10-17T06:29:46;18.63;;;8.43;;
15946;SDS011;8072;52.554;7.966;2022-10-17T06:32:12;10.67;;;8.43;;
15946;SDS011;8072;52.554;7.966;2022-10-17T06:34:38;10.13;;;8.20;;
15946;SDS011;8072;52.554;7.966;2022-10-17T06:37:04;12.07;;;8.77;;
15946;SDS011;8072;52.554;7.966;2022-10-17T06:39:30;12.87;;;9.33;;
15946;SDS011;8072;52.554;7.966;2022-10-17T06:42:01;12.83;;;8.07;;
15946;SDS011;8072;52.554;7.966;2022-10-17T06:44:28;12.27;;;8.80;;
15946;SDS011;8072;52.554;7.966;2022-10-17T06:46:56;10.23;;;8.40;;
15946;SDS011;8072;52.554;7.966;2022-10-17T06:49:23;12.47;;;8.73;;
15946;SDS011;8072;52.554;7.966;2022-10-17T06:51:48;10.77;;;7.43;;
15946;SDS011;8072;52.554;7.966;2022-10-17T06:54:14;13.90;;;9.40;;
15946;SDS011;8072;52.554;7.966;2022-10-17T06:56:40;10.57;;;8.50;;
15946;SDS011;8072;52.554;7.966;2022-10-17T06:59:07;10.70;;;7.97;;
15946;SDS011;8072;52.554;7.966;2022-10-17T07:01:33;12.23;;;8.43;;
15946;SDS011;8072;52.554;7.966;2022-10-17T07:03:59;10.57;;;7.67;;
15946;SDS011;8072;52.554;7.966;2022-10-17T07:06:25;10.67;;;8.17;;
15946;SDS011;8072;52.554;7.966;2022-10-17T07:08:51;12.73;;;7.87;;
15946;SDS011;8072;52.554;7.966;2022-10-17T07:11:18;12.83;;;7.67;;
15946;SDS011;8072;52.554;7.966;2022-10-17T07:13:45;11.53;;;7.73;;
15946;SDS011;8072;52.554;7.966;2022-10-17T07:16:11;11.20;;;7.77;;
15946;SDS011;8072;52.554;7.966;2022-10-17T07:18:38;10.67;;;7.57;;
15946;SDS011;8072;52.554;7.966;2022-10-17T07:21:04;10.70;;;7.70;;
15946;SDS011;8072;52.554;7.966;2022-10-17T07:23:31;9.07;;;7.00;;
15946;SDS011;8072;52.554;7.966;2022-10-17T07:26:01;10.13;;;7.13;;
15946;SDS011;8072;52.554;7.966;2022-10-17T07:28:31;9.47;;;7.20;;
15946;SDS011;8072;52.554;7.966;2022-10-17T07:31:31;12.37;;;7.97;;
15946;SDS011;8072;52.554;7.966;2022-10-17T07:33:50;10.50;;;7.43;;
15946;SDS011;8072;52.554;7.966;2022-10-17T07:36:16;8.77;;;7.37;;
15946;SDS011;8072;52.554;7.966;2022-10-17T07:38:42;10.60;;;6.83;;
15946;SDS011;8072;52.554;7.966;2022-10-17T07:41:09;13.13;;;6.77;;
15946;SDS011;8072;52.554;7.966;2022-10-17T07:43:35;11.07;;;6.77;;
15946;SDS011;8072;52.554;7.966;2022-10-17T07:46:02;7.83;;;6.80;;
15946;SDS011;8072;52.554;7.966;2022-10-17T07:48:29;9.60;;;6.10;;
15946;SDS011;8072;52.554;7.966;2022-10-17T07:50:55;9.10;;;6.47;;
15946;SDS011;8072;52.554;7.966;2022-10-17T07:53:21;9.07;;;7.23;;
15946;SDS011;8072;52.554;7.966;2022-10-17T07:55:46;9.80;;;6.20;;
15946;SDS011;8072;52.554;7.966;2022-10-17T07:58:13;10.07;;;6.00;;
15946;SDS011;8072;52.554;7.966;2022-10-17T08:00:40;8.93;;;6.53;;
15946;SDS011;8072;52.554;7.966;2022-10-17T08:03:06;7.77;;;5.73;;
15946;SDS011;8072;52.554;7.966;2022-10-17T08:05:32;9.40;;;6.47;;
15946;SDS011;8072;52.554;7.966;2022-10-17T08:07:58;8.60;;;6.10;;
15946;SDS011;8072;52.554;7.966;2022-10-17T08:10:24;7.93;;;6.13;;
15946;SDS011;8072;52.554;7.966;2022-10-17T08:12:54;9.83;;;6.00;;
15946;SDS011;8072;52.554;7.966;2022-10-17T08:15:21;11.37;;;6.67;;
15946;SDS011;8072;52.554;7.966;2022-10-17T08:17:48;8.43;;;5.97;;
15946;SDS011;8072;52.554;7.966;2022-10-17T08:20:14;7.83;;;5.97;;
15946;SDS011;8072;52.554;7.966;2022-10-17T08:22:40;7.07;;;6.00;;
15946;SDS011;8072;52.554;7.966;2022-10-17T08:25:06;15.93;;;6.03;;
15946;SDS011;8072;52.554;7.966;2022-10-17T08:27:32;6.97;;;5.70;;
15946;SDS011;8072;52.554;7.966;2022-10-17T08:29:59;8.77;;;5.70;;
15946;SDS011;8072;52.554;7.966;2022-10-17T08:32:26;8.27;;;5.60;;
15946;SDS011;8072;52.554;7.966;2022-10-17T08:34:52;8.63;;;6.10;;
15946;SDS011;8072;52.554;7.966;2022-10-17T08:37:19;8.93;;;5.90;;
15946;SDS011;8072;52.554;7.966;2022-10-17T08:39:48;8.13;;;5.20;;
15946;SDS011;8072;52.554;7.966;2022-10-17T08:47:45;8.33;;;5.27;;
15946;SDS011;8072;52.554;7.966;2022-10-17T08:50:28;8.30;;;5.00;;
15946;SDS011;8072;52.554;7.966;2022-10-17T08:52:56;8.30;;;5.30;;
15946;SDS011;8072;52.554;7.966;2022-10-17T08:55:31;7.77;;;5.37;;
15946;SDS011;8072;52.554;7.966;2022-10-17T08:58:00;6.10;;;4.50;;
15946;SDS011;8072;52.554;7.966;2022-10-17T09:00:27;7.53;;;4.83;;
15946;SDS011;8072;52.554;7.966;2022-10-17T09:05:38;6.50;;;4.77;;
15946;SDS011;8072;52.554;7.966;2022-10-17T09:11:14;7.67;;;4.83;;
15946;SDS011;8072;52.554;7.966;2022-10-17T09:17:17;8.80;;;4.77;;
15946;SDS011;8072;52.554;7.966;2022-10-17T09:19:58;5.87;;;4.73;;
15946;SDS011;8072;52.554;7.966;2022-10-17T09:22:38;9.93;;;4.73;;
15946;SDS011;8072;52.554;7.966;2022-10-17T09:25:11;7.30;;;4.87;;
15946;SDS011;8072;52.554;7.966;2022-10-17T09:27:44;9.67;;;5.20;;
15946;SDS011;8072;52.554;7.966;2022-10-17T09:30:33;8.17;;;4.70;;
15946;SDS011;8072;52.554;7.966;2022-10-17T09:33:15;7.90;;;4.43;;
15946;SDS011;8072;52.554;7.966;2022-10-17T09:35:43;7.67;;;4.63;;
15946;SDS011;8072;52.554;7.966;2022-10-17T09:38:20;8.43;;;4.13;;
15946;SDS011;8072;52.554;7.966;2022-10-17T09:40:58;6.40;;;4.40;;
15946;SDS011;8072;52.554;7.966;2022-10-17T09:43:25;9.13;;;4.50;;
15946;SDS011;8072;52.554;7.966;2022-10-17T09:48:47;8.27;;;4.17;;
15946;SDS011;8072;52.554;7.966;2022-10-17T09:51:17;9.43;;;4.67;;
15946;SDS011;8072;52.554;7.966;2022-10-17T09:53:45;6.60;;;5.00;;
15946;SDS011;8072;52.554;7.966;2022-10-17T09:56:16;12.07;;;4.50;;
15946;SDS011;8072;52.554;7.966;2022-10-17T09:58:44;5.63;;;4.37;;
15946;SDS011;8072;52.554;7.966;2022-10-17T10:01:23;5.93;;;4.30;;
15946;SDS011;8072;52.554;7.966;2022-10-17T10:06:37;5.33;;;4.33;;
15946;SDS011;8072;52.554;7.966;2022-10-17T10:09:04;5.87;;;4.50;;
15946;SDS011;8072;52.554;7.966;2022-10-17T10:11:54;6.10;;;4.17;;
15946;SDS011;8072;52.554;7.966;2022-10-17T10:16:58;5.60;;;4.30;;
15946;SDS011;8072;52.554;7.966;2022-10-17T10:21:56;10.47;;;4.70;;
15946;SDS011;8072;52.554;7.966;2022-10-17T10:24:42;6.40;;;3.97;;
15946;SDS011;8072;52.554;7.966;2022-10-17T10:27:12;6.70;;;4.63;;
15946;SDS011;8072;52.554;7.966;2022-10-17T10:29:47;5.23;;;4.33;;
15946;SDS011;8072;52.554;7.966;2022-10-17T10:34:50;9.30;;;4.57;;
15946;SDS011;8072;52.554;7.966;2022-10-17T10:37:32;4.63;;;4.03;;
15946;SDS011;8072;52.554;7.966;2022-10-17T10:40:45;8.00;;;3.93;;
15946;SDS011;8072;52.554;7.966;2022-10-17T10:42:58;4.93;;;4.10;;
15946;SDS011;8072;52.554;7.966;2022-10-17T10:45:26;6.43;;;4.00;;
15946;SDS011;8072;52.554;7.966;2022-10-17T10:48:18;9.17;;;5.00;;
15946;SDS011;8072;52.554;7.966;2022-10-17T10:51:10;7.57;;;3.93;;
15946;SDS011;8072;52.554;7.966;2022-10-17T10:56:20;7.73;;;4.50;;
15946;SDS011;8072;52.554;7.966;2022-10-17T11:01:57;6.57;;;3.80;;
15946;SDS011;8072;52.554;7.966;2022-10-17T11:07:31;8.27;;;4.77;;
15946;SDS011;8072;52.554;7.966;2022-10-17T11:13:02;7.40;;;4.57;;
15946;SDS011;8072;52.554;7.966;2022-10-17T11:20:59;6.37;;;4.60;;
15946;SDS011;8072;52.554;7.966;2022-10-17T11:26:22;9.07;;;4.97;;
15946;SDS011;8072;52.554;7.966;2022-10-17T11:28:52;7.33;;;5.20;;
15946;SDS011;8072;52.554;7.966;2022-10-17T11:31:19;9.63;;;5.60;;
15946;SDS011;8072;52.554;7.966;2022-10-17T11:33:55;10.93;;;5.93;;
15946;SDS011;8072;52.554;7.966;2022-10-17T11:36:43;12.03;;;6.40;;
15946;SDS011;8072;52.554;7.966;2022-10-17T11:41:53;11.27;;;6.10;;
15946;SDS011;8072;52.554;7.966;2022-10-17T11:44:35;11.60;;;6.17;;
15946;SDS011;8072;52.554;7.966;2022-10-17T11:47:11;9.27;;;6.23;;
15946;SDS011;8072;52.554;7.966;2022-10-17T11:49:44;8.30;;;6.40;;
15946;SDS011;8072;52.554;7.966;2022-10-17T11:52:34;11.23;;;5.50;;
15946;SDS011;8072;52.554;7.966;2022-10-17T11:55:21;7.37;;;5.20;;
15946;SDS011;8072;52.554;7.966;2022-10-17T12:09:08;12.50;;;5.83;;
15946;SDS011;8072;52.554;7.966;2022-10-17T12:11:54;10.27;;;6.17;;
15946;SDS011;8072;52.554;7.966;2022-10-17T12:25:19;9.77;;;5.23;;
15946;SDS011;8072;52.554;7.966;2022-10-17T12:27:46;8.50;;;5.17;;
15946;SDS011;8072;52.554;7.966;2022-10-17T12:30:21;10.03;;;6.20;;
15946;SDS011;8072;52.554;7.966;2022-10-17T12:35:22;8.50;;;6.30;;
15946;SDS011;8072;52.554;7.966;2022-10-17T12:45:51;8.97;;;6.80;;
15946;SDS011;8072;52.554;7.966;2022-10-17T12:51:09;9.17;;;6.90;;
15946;SDS011;8072;52.554;7.966;2022-10-17T12:56:08;16.87;;;11.60;;
15946;SDS011;8072;52.554;7.966;2022-10-17T12:58:34;9.13;;;6.90;;
15946;SDS011;8072;52.554;7.966;2022-10-17T13:01:00;8.93;;;5.87;;
15946;SDS011;8072;52.554;7.966;2022-10-17T13:03:30;7.73;;;6.90;;
15946;SDS011;8072;52.554;7.966;2022-10-17T13:06:01;8.50;;;5.37;;
15946;SDS011;8072;52.554;7.966;2022-10-17T13:10:57;9.23;;;4.73;;
15946;SDS011;8072;52.554;7.966;2022-10-17T13:13:37;6.50;;;4.53;;
15946;SDS011;8072;52.554;7.966;2022-10-17T13:16:27;7.27;;;5.00;;
15946;SDS011;8072;52.554;7.966;2022-10-17T13:18:53;6.93;;;4.87;;
15946;SDS011;8072;52.554;7.966;2022-10-17T13:21:19;10.07;;;5.30;;
15946;SDS011;8072;52.554;7.966;2022-10-17T13:23:45;7.17;;;5.57;;
15946;SDS011;8072;52.554;7.966;2022-10-17T13:26:15;8.33;;;6.07;;
15946;SDS011;8072;52.554;7.966;2022-10-17T13:28:48;6.00;;;4.80;;
15946;SDS011;8072;52.554;7.966;2022-10-17T13:31:29;8.30;;;5.70;;
15946;SDS011;8072;52.554;7.966;2022-10-17T13:33:57;6.87;;;5.27;;
15946;SDS011;8072;52.554;7.966;2022-10-17T13:36:25;7.90;;;6.10;;
15946;SDS011;8072;52.554;7.966;2022-10-17T13:38:52;7.70;;;5.57;;
15946;SDS011;8072;52.554;7.966;2022-10-17T13:41:21;8.13;;;5.87;;
15946;SDS011;8072;52.554;7.966;2022-10-17T13:43:50;9.30;;;6.37;;
15946;SDS011;8072;52.554;7.966;2022-10-17T13:46:35;12.70;;;6.63;;
15946;SDS011;8072;52.554;7.966;2022-10-17T13:49:24;9.93;;;6.80;;
15946;SDS011;8072;52.554;7.966;2022-10-17T13:51:54;8.27;;;6.60;;
15946;SDS011;8072;52.554;7.966;2022-10-17T13:54:38;9.87;;;6.77;;
15946;SDS011;8072;52.554;7.966;2022-10-17T13:57:15;11.13;;;7.23;;
15946;SDS011;8072;52.554;7.966;2022-10-17T14:00:32;12.93;;;7.80;;
15946;SDS011;8072;52.554;7.966;2022-10-17T14:02:51;12.13;;;7.50;;
15946;SDS011;8072;52.554;7.966;2022-10-17T14:05:17;12.00;;;7.70;;
15946;SDS011;8072;52.554;7.966;2022-10-17T14:10:22;14.20;;;9.63;;
15946;SDS011;8072;52.554;7.966;2022-10-17T14:12:54;11.83;;;9.47;;
15946;SDS011;8072;52.554;7.966;2022-10-17T14:15:21;15.13;;;8.53;;
15946;SDS011;8072;52.554;7.966;2022-10-17T14:17:58;11.17;;;8.13;;
15946;SDS011;8072;52.554;7.966;2022-10-17T14:20:26;13.50;;;8.93;;
15946;SDS011;8072;52.554;7.966;2022-10-17T14:22:53;12.27;;;8.07;;
15946;SDS011;8072;52.554;7.966;2022-10-17T14:25:28;11.33;;;9.27;;
15946;SDS011;8072;52.554;7.966;2022-10-17T14:30:33;14.40;;;9.50;;
15946;SDS011;8072;52.554;7.966;2022-10-17T14:33:01;13.57;;;9.17;;
15946;SDS011;8072;52.554;7.966;2022-10-17T14:35:29;12.60;;;8.90;;
15946;SDS011;8072;52.554;7.966;2022-10-17T14:38:05;14.73;;;9.60;;
15946;SDS011;8072;52.554;7.966;2022-10-17T14:40:32;15.43;;;8.90;;
15946;SDS011;8072;52.554;7.966;2022-10-17T14:42:59;15.67;;;9.17;;
15946;SDS011;8072;52.554;7.966;2022-10-17T14:45:30;17.97;;;9.43;;
15946;SDS011;8072;52.554;7.966;2022-10-17T14:48:11;23.50;;;10.23;;
15946;SDS011;8072;52.554;7.966;2022-10-17T14:50:40;15.77;;;10.47;;
15946;SDS011;8072;52.554;7.966;2022-10-17T14:55:37;17.37;;;10.30;;
15946;SDS011;8072;52.554;7.966;2022-10-17T14:58:37;14.17;;;9.50;;
15946;SDS011;8072;52.554;7.966;2022-10-17T15:00:57;12.27;;;9.43;;
15946;SDS011;8072;52.554;7.966;2022-10-17T15:03:24;16.67;;;8.87;;
15946;SDS011;8072;52.554;7.966;2022-10-17T15:05:51;12.30;;;9.17;;
15946;SDS011;8072;52.554;7.966;2022-10-17T15:08:19;12.40;;;8.87;;
15946;SDS011;8072;52.554;7.966;2022-10-17T15:10:46;11.17;;;8.53;;
15946;SDS011;8072;52.554;7.966;2022-10-17T15:13:13;12.83;;;8.20;;
15946;SDS011;8072;52.554;7.966;2022-10-17T15:15:39;12.97;;;9.27;;
15946;SDS011;8072;52.554;7.966;2022-10-17T15:18:06;16.03;;;10.70;;
15946;SDS011;8072;52.554;7.966;2022-10-17T15:20:34;10.83;;;8.27;;
15946;SDS011;8072;52.554;7.966;2022-10-17T15:23:00;16.40;;;9.00;;
15946;SDS011;8072;52.554;7.966;2022-10-17T15:25:26;11.87;;;8.67;;
15946;SDS011;8072;52.554;7.966;2022-10-17T15:27:54;14.27;;;9.53;;
15946;SDS011;8072;52.554;7.966;2022-10-17T15:30:21;16.50;;;12.27;;
15946;SDS011;8072;52.554;7.966;2022-10-17T15:32:50;25.23;;;16.30;;
15946;SDS011;8072;52.554;7.966;2022-10-17T15:35:17;15.10;;;9.60;;
15946;SDS011;8072;52.554;7.966;2022-10-17T15:37:43;17.03;;;13.60;;
15946;SDS011;8072;52.554;7.966;2022-10-17T15:40:14;16.97;;;9.43;;
15946;SDS011;8072;52.554;7.966;2022-10-17T15:42:42;17.37;;;11.60;;
15946;SDS011;8072;52.554;7.966;2022-10-17T15:45:11;15.13;;;11.07;;
15946;SDS011;8072;52.554;7.966;2022-10-17T15:47:39;16.33;;;11.00;;
15946;SDS011;8072;52.554;7.966;2022-10-17T15:50:06;16.90;;;9.00;;
15946;SDS011;8072;52.554;7.966;2022-10-17T15:52:35;14.70;;;8.27;;
15946;SDS011;8072;52.554;7.966;2022-10-17T15:55:02;11.60;;;8.90;;
15946;SDS011;8072;52.554;7.966;2022-10-17T15:57:30;16.77;;;9.43;;
15946;SDS011;8072;52.554;7.966;2022-10-17T16:00:00;13.97;;;9.93;;
15946;SDS011;8072;52.554;7.966;2022-10-17T16:02:26;14.67;;;8.70;;
15946;SDS011;8072;52.554;7.966;2022-10-17T16:04:51;17.13;;;11.40;;
15946;SDS011;8072;52.554;7.966;2022-10-17T16:07:17;26.13;;;18.73;;
15946;SDS011;8072;52.554;7.966;2022-10-17T16:09:44;20.17;;;15.83;;
15946;SDS011;8072;52.554;7.966;2022-10-17T16:12:11;17.47;;;11.77;;
15946;SDS011;8072;52.554;7.966;2022-10-17T16:14:42;16.53;;;9.50;;
15946;SDS011;8072;52.554;7.966;2022-10-17T16:17:14;13.03;;;8.93;;
15946;SDS011;8072;52.554;7.966;2022-10-17T16:19:41;11.47;;;9.03;;
15946;SDS011;8072;52.554;7.966;2022-10-17T16:22:23;13.40;;;9.90;;
15946;SDS011;8072;52.554;7.966;2022-10-17T16:24:56;14.43;;;9.13;;
15946;SDS011;8072;52.554;7.966;2022-10-17T16:27:24;15.10;;;9.30;;
15946;SDS011;8072;52.554;7.966;2022-10-17T16:29:50;14.23;;;9.80;;
15946;SDS011;8072;52.554;7.966;2022-10-17T16:32:16;14.13;;;9.27;;
15946;SDS011;8072;52.554;7.966;2022-10-17T16:34:44;14.50;;;9.30;;
15946;SDS011;8072;52.554;7.966;2022-10-17T16:37:10;14.17;;;9.37;;
15946;SDS011;8072;52.554;7.966;2022-10-17T16:39:35;18.27;;;9.80;;
15946;SDS011;8072;52.554;7.966;2022-10-17T16:42:01;12.07;;;8.87;;
15946;SDS011;8072;52.554;7.966;2022-10-17T16:44:27;15.57;;;9.77;;
15946;SDS011;8072;52.554;7.966;2022-10-17T16:46:52;15.90;;;9.23;;
15946;SDS011;8072;52.554;7.966;2022-10-17T16:49:18;14.67;;;9.30;;
15946;SDS011;8072;52.554;7.966;2022-10-17T16:51:44;14.63;;;9.60;;
15946;SDS011;8072;52.554;7.966;2022-10-17T16:54:09;12.77;;;9.57;;
15946;SDS011;8072;52.554;7.966;2022-10-17T16:56:35;13.67;;;10.03;;
15946;SDS011;8072;52.554;7.966;2022-10-17T16:59:01;13.90;;;9.87;;
15946;SDS011;8072;52.554;7.966;2022-10-17T17:01:27;17.57;;;10.07;;
15946;SDS011;8072;52.554;7.966;2022-10-17T17:03:56;12.93;;;10.53;;
15946;SDS011;8072;52.554;7.966;2022-10-17T17:06:23;13.73;;;10.20;;
15946;SDS011;8072;52.554;7.966;2022-10-17T17:08:50;14.33;;;10.23;;
15946;SDS011;8072;52.554;7.966;2022-10-17T17:11:18;18.53;;;10.33;;
15946;SDS011;8072;52.554;7.966;2022-10-17T17:13:45;14.83;;;9.67;;
15946;SDS011;8072;52.554;7.966;2022-10-17T17:16:12;17.70;;;11.27;;
15946;SDS011;8072;52.554;7.966;2022-10-17T17:18:41;16.40;;;11.07;;